Costa Fascinosa — ICPO — position and weather

sailwx.info

Track history (hours):
 
Tides and Currents Weather Stations Pressure Air Temp Water Temp Dewpoint Dewpoint Depression Visibility Wind Speed Wind Dir Waves Ship Positions

Costa Fascinosa

Last reported at 2018-May-23 18:16 UTC. Time now 2018-May-23 22:37 UTC.
Position N 36°41' E 013°01'.

Length 291 m; draft 8.3 m.

Type: Passenger vessel. MMSI: 247313500.

Date/timePositionNaut miles runAvg speedWind from/ knotsBaromVisibWave heightAir tempDewpointWater temp
2018-May-23 18:16N 36°41' E 013°01'517.6
2018-May-23 18:00N 36°39' E 013°07'2417.3
2018-May-23 16:36N 36°29' E 013°34'216.8
2018-May-23 16:30N 36°28' E 013°36'916.9
2018-May-23 15:57N 36°24' E 013°46'816.8
2018-May-23 15:27N 36°20' E 013°55'916.6
2018-May-23 14:54N 36°16' E 014°06'716.6
2018-May-23 14:29N 36°13' E 014°13'816.7
2018-May-23 14:00N 36°09' E 014°22'217 5.6
2018-May-21 23:31N 39°47' E 014°34'013.1
2018-May-21 23:30N 39°47' E 014°34'713.2
2018-May-21 23:00N 39°53' E 014°30'613.1
2018-May-21 22:31N 39°59' E 014°27'713.2
2018-May-21 22:01N 40°05' E 014°23'713.4
2018-May-21 21:30N 40°11' E 014°20'713.5
2018-May-21 21:01N 40°17' E 014°16'713.5
2018-May-21 20:30N 40°23' E 014°13'913.3
2018-May-21 19:49N 40°32' E 014°08'413.5
2018-May-21 19:31N 40°36' E 014°10'713.6
2018-May-21 19:00N 40°43' E 014°13'713.0
2018-May-21 18:30N 40°48' E 014°16'2 4.0
2018-May-21 18:00N 40°50' E 014°16'0 0.0
2018-May-21 17:24N 40°50' E 014°16'0 0.0
2018-May-21 17:00N 40°50' E 014°16'0 0.0
2018-May-21 16:24N 40°50' E 014°16'0 0.0
2018-May-21 15:51N 40°50' E 014°16'0 0.0
2018-May-21 15:21N 40°50' E 014°16'0 0.0
2018-May-21 15:00N 40°50' E 014°16'0 0.0
2018-May-21 14:30N 40°50' E 014°16'0 0.0
2018-May-21 14:00N 40°50' E 014°16'0 0.0
2018-May-21 13:30N 40°50' E 014°16'0 0.0
2018-May-21 12:57N 40°50' E 014°16'0 0.0
2018-May-21 12:30N 40°50' E 014°16'0 0.0
2018-May-21 12:00N 40°50' E 014°16'0 0.0
2018-May-21 11:21N 40°50' E 014°16'0 0.0
2018-May-21 11:01N 40°50' E 014°16'1 2.3
2018-May-21 10:30N 40°50' E 014°17'4 8.8
2018-May-21 10:00N 40°45' E 014°18'714.2
2018-May-21 09:30N 40°40' E 014°11'1018.9
2018-May-21 09:00N 40°38' E 013°59'1020.3
2018-May-21 08:30N 40°40' E 013°46'1120.3
2018-May-21 07:58N 40°42' E 013°32'3320.0
2018-May-21 06:19N 40°50' E 012°50'11820.3
2018-May-21 00:31N 41°56' E 010°38'420.1
2018-May-21 00:19N 41°58' E 010°34'820.0
2018-May-20 23:55N 42°02' E 010°25'2120.2
2018-May-20 22:51N 42°14' E 010°01'1019.5
2018-May-20 22:22N 42°21' E 009°51'719.2
2018-May-20 22:00N 42°27' E 009°49'919.0
2018-May-20 21:30N 42°36' E 009°45'1019.1
2018-May-20 21:00N 42°45' E 009°41'1019.0
2018-May-20 20:30N 42°55' E 009°37'918.7
2018-May-20 20:00N 43°03' E 009°33'1019.1
2018-May-20 19:30N 43°12' E 009°27'1019.0
2018-May-20 19:00N 43°20' E 009°20'1018.8
2018-May-20 18:30N 43°28' E 009°14'918.8
2018-May-20 18:00N 43°36' E 009°07'918.8
2018-May-20 17:30N 43°44' E 009°01'1019.0
2018-May-20 17:00N 43°52' E 008°54'1019.0
2018-May-20 16:30N 44°00' E 008°47'918.8
2018-May-20 16:00N 44°08' E 008°40'917.9
2018-May-20 15:30N 44°16' E 008°33'4 8.0
2018-May-20 15:00N 44°19' E 008°30'1 1.1
2018-May-20 14:28N 44°19' E 008°29'0 0.0
2018-May-20 13:58N 44°19' E 008°29'0 0.0
2018-May-20 13:28N 44°19' E 008°29'0 0.0
2018-May-20 12:58N 44°19' E 008°29'0 0.0
2018-May-20 12:28N 44°19' E 008°29'0 0.0
2018-May-20 11:58N 44°19' E 008°29'0 0.0
2018-May-20 11:28N 44°19' E 008°29'0 0.0
2018-May-20 10:58N 44°19' E 008°29'0 0.0
2018-May-20 10:28N 44°19' E 008°29'0 0.0
2018-May-20 09:58N 44°19' E 008°29'0 0.0
2018-May-20 09:28N 44°19' E 008°29'0 0.0
2018-May-20 09:00N 44°19' E 008°29'0 0.0
2018-May-20 08:27N 44°19' E 008°29'0 0.0
2018-May-20 08:00N 44°19' E 008°29'0 0.0
2018-May-20 07:30N 44°19' E 008°29'0 0.0
2018-May-20 06:57N 44°19' E 008°29'0 0.0
2018-May-20 06:29N 44°19' E 008°29'0 0.2
2018-May-20 06:00N 44°19' E 008°29'3 6.8
2018-May-20 05:30N 44°16' E 008°32'816.0
2018-May-20 05:00N 44°09' E 008°27'917.2
2018-May-20 04:30N 44°01' E 008°21'917.8
2018-May-20 04:00N 43°54' E 008°14'917.8
2018-May-20 03:30N 43°47' E 008°06'917.6
2018-May-20 03:00N 43°41' E 007°57'1817.3
2018-May-20 01:58N 43°31' E 007°37'715.0
2018-May-20 01:30N 43°27' E 007°29'612.5
2018-May-20 01:00N 43°23' E 007°22'612.8
2018-May-20 00:30N 43°19' E 007°15'713.1
2018-May-20 00:00N 43°15' E 007°08'613.1
2018-May-19 23:31N 43°11' E 007°01'7612.0
2018-May-19 17:08N 43°06' E 005°17'213.3
2018-May-19 17:00N 43°06' E 005°14'612.9
2018-May-19 16:30N 43°09' E 005°07'611.7
2018-May-19 15:58N 43°15' E 005°09'612.9
2018-May-19 15:30N 43°19' E 005°16'3 6.3
2018-May-19 15:00N 43°21' E 005°19'0 0.0
2018-May-19 06:30N 43°21' E 005°20'2 3.8
2018-May-19 06:00N 43°21' E 005°17'611.2
2018-May-19 05:30N 43°17' E 005°12'815.2
2018-May-19 05:00N 43°10' E 005°07'917.6
2018-May-19 04:30N 43°03' E 004°59'714.3
2018-May-19 04:00N 42°58' E 004°52'713.1
2018-May-19 03:28N 42°53' E 004°46'613.2
2018-May-19 03:00N 42°49' E 004°40'1012.7
2018-May-19 02:14N 42°42' E 004°30'11313.0
2018-May-18 17:31N 41°26' E 002°37'013.5
2018-May-18 17:30N 41°26' E 002°37'713.4
2018-May-18 17:00N 41°22' E 002°30'713.2
2018-May-18 16:30N 41°18' E 002°23'612.9
2018-May-18 16:00N 41°14' E 002°16'510.6
2018-May-18 15:30N 41°18' E 002°10'3 5.9
2018-May-18 14:58N 41°21' E 002°11'0 0.0
2018-May-18 14:28N 41°21' E 002°11'0 0.0
2018-May-18 13:58N 41°21' E 002°11'0 0.0
2018-May-18 13:25N 41°21' E 002°11'0 0.0
2018-May-18 12:58N 41°21' E 002°11'0 0.0
2018-May-18 12:25N 41°21' E 002°11'0 0.0
2018-May-18 11:58N 41°21' E 002°11'0 0.0
2018-May-18 11:28N 41°21' E 002°11'0 0.0
2018-May-18 10:58N 41°21' E 002°11'0 0.0
2018-May-18 10:28N 41°21' E 002°11'0 0.0
2018-May-18 09:58N 41°21' E 002°11'0 0.0
2018-May-18 09:25N 41°21' E 002°11'0 0.0
2018-May-18 08:58N 41°21' E 002°11'0 0.0
2018-May-18 07:25N 41°21' E 002°11'0 0.0
2018-May-18 07:00N 41°21' E 002°10'2 3.3
2018-May-18 06:30N 41°20' E 002°10'510.0
2018-May-18 06:00N 41°16' E 002°14'612.8
2018-May-18 05:30N 41°12' E 002°21'613.0
2018-May-18 05:00N 41°09' E 002°29'613.0
2018-May-18 04:30N 41°06' E 002°36'51816.0
2018-May-16 20:02N 36°58' E 012°22'117.5
2018-May-16 19:59N 36°58' E 012°23'817.0
2018-May-16 19:30N 36°54' E 012°32'917.1
2018-May-16 18:59N 36°51' E 012°42'917.3
2018-May-16 18:29N 36°47' E 012°52'1117.6
2018-May-16 17:50N 36°42' E 013°04'617.6
2018-May-16 17:29N 36°39' E 013°11'817.5
2018-May-16 17:00N 36°36' E 013°21'917.6
2018-May-16 16:30N 36°31' E 013°30'1517.1
2018-May-16 15:36N 36°22' E 013°46'217.2
2018-May-16 15:30N 36°21' E 013°48'1617.2
2018-May-16 14:33N 36°16' E 014°07'117.7
2018-May-16 14:30N 36°15' E 014°08'1417.9
2018-May-16 13:44N 36°09' E 014°23'617.3
2018-May-16 13:22N 36°05' E 014°28'817.5
2018-May-16 12:56N 35°58' E 014°33'4 0.5
2018-May-16 04:33N 35°57' E 014°38'9011.0
2018-May-15 20:25N 37°14' E 015°36'612.3
2018-May-15 19:55N 37°17' E 015°30'47 3.7
2018-May-15 07:10N 38°04' E 015°32'317.8
2018-May-15 06:59N 38°07' E 015°34'816.9
2018-May-15 06:30N 38°15' E 015°37'612.8
2018-May-15 06:00N 38°21' E 015°38'916.9
2018-May-15 05:29N 38°28' E 015°31'916.8
2018-May-15 04:56N 38°34' E 015°23'916.6
2018-May-15 04:23N 38°40' E 015°14'717.3
2018-May-15 03:59N 38°45' E 015°08'8115.2
2018-May-14 22:41N 39°60' E 014°26'312.5
2018-May-14 22:28N 40°02' E 014°25'612.6
2018-May-14 22:00N 40°08' E 014°22'612.6
2018-May-14 21:30N 40°13' E 014°19'612.9
2018-May-14 21:00N 40°19' E 014°15'712.9
2018-May-14 20:29N 40°25' E 014°12'713.0
2018-May-14 19:54N 40°32' E 014°09'512.3
2018-May-14 19:30N 40°37' E 014°10'612.6
2018-May-14 19:00N 40°43' E 014°14'612.4
2018-May-14 18:30N 40°49' E 014°17'2 3.2
2018-May-14 17:58N 40°50' E 014°16'0 0.0
2018-May-14 17:28N 40°50' E 014°16'0 0.0
2018-May-14 16:58N 40°50' E 014°16'0 0.0
2018-May-14 16:28N 40°50' E 014°16'0 0.0
2018-May-14 15:58N 40°50' E 014°16'0 0.0
2018-May-14 15:10N 40°50' E 014°16'0 0.0
2018-May-14 14:58N 40°50' E 014°16'0 0.0
2018-May-14 14:28N 40°50' E 014°16'0 0.0
2018-May-14 13:58N 40°50' E 014°16'0 0.0
2018-May-14 13:28N 40°50' E 014°16'0 0.0
2018-May-14 12:58N 40°50' E 014°16'0 0.0
2018-May-14 12:28N 40°50' E 014°16'0 0.0
2018-May-14 11:46N 40°50' E 014°16'0 0.0
2018-May-14 11:28N 40°50' E 014°16'0 0.1
2018-May-14 10:49N 40°50' E 014°16'1 2.5
2018-May-14 10:30N 40°50' E 014°17'612.8
2018-May-14 10:00N 40°44' E 014°17'816.7
2018-May-14 09:30N 40°40' E 014°08'917.3
2018-May-14 09:01N 40°38' E 013°56'917.4
2018-May-14 08:30N 40°40' E 013°45'20719.2
2018-May-13 21:43N 42°28' E 009°49'3220.3
2018-May-13 20:09N 42°59' E 009°36'320.0
2018-May-13 20:00N 43°02' E 009°35'1020.0
2018-May-13 19:31N 43°09' E 009°26'1020.2
2018-May-13 19:00N 43°15' E 009°16'1020.2
2018-May-13 18:30N 43°22' E 009°05'  
Track history (hours):
 
Tides and Currents Weather Stations Pressure Air Temp Water Temp Dewpoint Dewpoint Depression Visibility Wind Speed Wind Dir Waves Ship Positions

Costa Fascinosa

Last reported at 2018-May-23 18:16 UTC. Time now 2018-May-23 22:37 UTC.
Position N 36°41' E 013°01'.

Length 291 m; draft 8.3 m.

Type: Passenger vessel. MMSI: 247313500.

Date/timePositionNaut miles runAvg speedWind from/ knotsBaromVisibWave heightAir tempDewpointWater temp
2018-May-23 18:16N 36°41' E 013°01'517.6
2018-May-23 18:00N 36°39' E 013°07'2417.3
2018-May-23 16:36N 36°29' E 013°34'216.8
2018-May-23 16:30N 36°28' E 013°36'916.9
2018-May-23 15:57N 36°24' E 013°46'816.8
2018-May-23 15:27N 36°20' E 013°55'916.6
2018-May-23 14:54N 36°16' E 014°06'716.6
2018-May-23 14:29N 36°13' E 014°13'816.7
2018-May-23 14:00N 36°09' E 014°22'217 5.6
2018-May-21 23:31N 39°47' E 014°34'013.1
2018-May-21 23:30N 39°47' E 014°34'713.2
2018-May-21 23:00N 39°53' E 014°30'613.1
2018-May-21 22:31N 39°59' E 014°27'713.2
2018-May-21 22:01N 40°05' E 014°23'713.4
2018-May-21 21:30N 40°11' E 014°20'713.5
2018-May-21 21:01N 40°17' E 014°16'713.5
2018-May-21 20:30N 40°23' E 014°13'913.3
2018-May-21 19:49N 40°32' E 014°08'413.5
2018-May-21 19:31N 40°36' E 014°10'713.6
2018-May-21 19:00N 40°43' E 014°13'713.0
2018-May-21 18:30N 40°48' E 014°16'2 4.0
2018-May-21 18:00N 40°50' E 014°16'0 0.0
2018-May-21 17:24N 40°50' E 014°16'0 0.0
2018-May-21 17:00N 40°50' E 014°16'0 0.0
2018-May-21 16:24N 40°50' E 014°16'0 0.0
2018-May-21 15:51N 40°50' E 014°16'0 0.0
2018-May-21 15:21N 40°50' E 014°16'0 0.0
2018-May-21 15:00N 40°50' E 014°16'0 0.0
2018-May-21 14:30N 40°50' E 014°16'0 0.0
2018-May-21 14:00N 40°50' E 014°16'0 0.0
2018-May-21 13:30N 40°50' E 014°16'0 0.0
2018-May-21 12:57N 40°50' E 014°16'0 0.0
2018-May-21 12:30N 40°50' E 014°16'0 0.0
2018-May-21 12:00N 40°50' E 014°16'0 0.0
2018-May-21 11:21N 40°50' E 014°16'0 0.0
2018-May-21 11:01N 40°50' E 014°16'1 2.3
2018-May-21 10:30N 40°50' E 014°17'4 8.8
2018-May-21 10:00N 40°45' E 014°18'714.2
2018-May-21 09:30N 40°40' E 014°11'1018.9
2018-May-21 09:00N 40°38' E 013°59'1020.3
2018-May-21 08:30N 40°40' E 013°46'1120.3
2018-May-21 07:58N 40°42' E 013°32'3320.0
2018-May-21 06:19N 40°50' E 012°50'11820.3
2018-May-21 00:31N 41°56' E 010°38'420.1
2018-May-21 00:19N 41°58' E 010°34'820.0
2018-May-20 23:55N 42°02' E 010°25'2120.2
2018-May-20 22:51N 42°14' E 010°01'1019.5
2018-May-20 22:22N 42°21' E 009°51'719.2
2018-May-20 22:00N 42°27' E 009°49'919.0
2018-May-20 21:30N 42°36' E 009°45'1019.1
2018-May-20 21:00N 42°45' E 009°41'1019.0
2018-May-20 20:30N 42°55' E 009°37'918.7
2018-May-20 20:00N 43°03' E 009°33'1019.1
2018-May-20 19:30N 43°12' E 009°27'1019.0
2018-May-20 19:00N 43°20' E 009°20'1018.8
2018-May-20 18:30N 43°28' E 009°14'918.8
2018-May-20 18:00N 43°36' E 009°07'918.8
2018-May-20 17:30N 43°44' E 009°01'1019.0
2018-May-20 17:00N 43°52' E 008°54'1019.0
2018-May-20 16:30N 44°00' E 008°47'918.8
2018-May-20 16:00N 44°08' E 008°40'917.9
2018-May-20 15:30N 44°16' E 008°33'4 8.0
2018-May-20 15:00N 44°19' E 008°30'1 1.1
2018-May-20 14:28N 44°19' E 008°29'0 0.0
2018-May-20 13:58N 44°19' E 008°29'0 0.0
2018-May-20 13:28N 44°19' E 008°29'0 0.0
2018-May-20 12:58N 44°19' E 008°29'0 0.0
2018-May-20 12:28N 44°19' E 008°29'0 0.0
2018-May-20 11:58N 44°19' E 008°29'0 0.0
2018-May-20 11:28N 44°19' E 008°29'0 0.0
2018-May-20 10:58N 44°19' E 008°29'0 0.0
2018-May-20 10:28N 44°19' E 008°29'0 0.0
2018-May-20 09:58N 44°19' E 008°29'0 0.0
2018-May-20 09:28N 44°19' E 008°29'0 0.0
2018-May-20 09:00N 44°19' E 008°29'0 0.0
2018-May-20 08:27N 44°19' E 008°29'0 0.0
2018-May-20 08:00N 44°19' E 008°29'0 0.0
2018-May-20 07:30N 44°19' E 008°29'0 0.0
2018-May-20 06:57N 44°19' E 008°29'0 0.0
2018-May-20 06:29N 44°19' E 008°29'0 0.2
2018-May-20 06:00N 44°19' E 008°29'3 6.8
2018-May-20 05:30N 44°16' E 008°32'816.0
2018-May-20 05:00N 44°09' E 008°27'917.2
2018-May-20 04:30N 44°01' E 008°21'917.8
2018-May-20 04:00N 43°54' E 008°14'917.8
2018-May-20 03:30N 43°47' E 008°06'917.6
2018-May-20 03:00N 43°41' E 007°57'1817.3
2018-May-20 01:58N 43°31' E 007°37'715.0
2018-May-20 01:30N 43°27' E 007°29'612.5
2018-May-20 01:00N 43°23' E 007°22'612.8
2018-May-20 00:30N 43°19' E 007°15'713.1
2018-May-20 00:00N 43°15' E 007°08'613.1
2018-May-19 23:31N 43°11' E 007°01'7612.0
2018-May-19 17:08N 43°06' E 005°17'213.3
2018-May-19 17:00N 43°06' E 005°14'612.9
2018-May-19 16:30N 43°09' E 005°07'611.7
2018-May-19 15:58N 43°15' E 005°09'612.9
2018-May-19 15:30N 43°19' E 005°16'3 6.3
2018-May-19 15:00N 43°21' E 005°19'0 0.0
2018-May-19 06:30N 43°21' E 005°20'2 3.8
2018-May-19 06:00N 43°21' E 005°17'611.2
2018-May-19 05:30N 43°17' E 005°12'815.2
2018-May-19 05:00N 43°10' E 005°07'917.6
2018-May-19 04:30N 43°03' E 004°59'714.3
2018-May-19 04:00N 42°58' E 004°52'713.1
2018-May-19 03:28N 42°53' E 004°46'613.2
2018-May-19 03:00N 42°49' E 004°40'1012.7
2018-May-19 02:14N 42°42' E 004°30'11313.0
2018-May-18 17:31N 41°26' E 002°37'013.5
2018-May-18 17:30N 41°26' E 002°37'713.4
2018-May-18 17:00N 41°22' E 002°30'713.2
2018-May-18 16:30N 41°18' E 002°23'612.9
2018-May-18 16:00N 41°14' E 002°16'510.6
2018-May-18 15:30N 41°18' E 002°10'3 5.9
2018-May-18 14:58N 41°21' E 002°11'0 0.0
2018-May-18 14:28N 41°21' E 002°11'0 0.0
2018-May-18 13:58N 41°21' E 002°11'0 0.0
2018-May-18 13:25N 41°21' E 002°11'0 0.0
2018-May-18 12:58N 41°21' E 002°11'0 0.0
2018-May-18 12:25N 41°21' E 002°11'0 0.0
2018-May-18 11:58N 41°21' E 002°11'0 0.0
2018-May-18 11:28N 41°21' E 002°11'0 0.0
2018-May-18 10:58N 41°21' E 002°11'0 0.0
2018-May-18 10:28N 41°21' E 002°11'0 0.0
2018-May-18 09:58N 41°21' E 002°11'0 0.0
2018-May-18 09:25N 41°21' E 002°11'0 0.0
2018-May-18 08:58N 41°21' E 002°11'0 0.0
2018-May-18 07:25N 41°21' E 002°11'0 0.0
2018-May-18 07:00N 41°21' E 002°10'2 3.3
2018-May-18 06:30N 41°20' E 002°10'510.0
2018-May-18 06:00N 41°16' E 002°14'612.8
2018-May-18 05:30N 41°12' E 002°21'613.0
2018-May-18 05:00N 41°09' E 002°29'613.0
2018-May-18 04:30N 41°06' E 002°36'51816.0
2018-May-16 20:02N 36°58' E 012°22'117.5
2018-May-16 19:59N 36°58' E 012°23'817.0
2018-May-16 19:30N 36°54' E 012°32'917.1
2018-May-16 18:59N 36°51' E 012°42'917.3
2018-May-16 18:29N 36°47' E 012°52'1117.6
2018-May-16 17:50N 36°42' E 013°04'617.6
2018-May-16 17:29N 36°39' E 013°11'817.5
2018-May-16 17:00N 36°36' E 013°21'917.6
2018-May-16 16:30N 36°31' E 013°30'1517.1
2018-May-16 15:36N 36°22' E 013°46'217.2
2018-May-16 15:30N 36°21' E 013°48'1617.2
2018-May-16 14:33N 36°16' E 014°07'117.7
2018-May-16 14:30N 36°15' E 014°08'1417.9
2018-May-16 13:44N 36°09' E 014°23'617.3
2018-May-16 13:22N 36°05' E 014°28'817.5
2018-May-16 12:56N 35°58' E 014°33'4 0.5
2018-May-16 04:33N 35°57' E 014°38'9011.0
2018-May-15 20:25N 37°14' E 015°36'612.3
2018-May-15 19:55N 37°17' E 015°30'47 3.7
2018-May-15 07:10N 38°04' E 015°32'317.8
2018-May-15 06:59N 38°07' E 015°34'816.9
2018-May-15 06:30N 38°15' E 015°37'612.8
2018-May-15 06:00N 38°21' E 015°38'916.9
2018-May-15 05:29N 38°28' E 015°31'916.8
2018-May-15 04:56N 38°34' E 015°23'916.6
2018-May-15 04:23N 38°40' E 015°14'717.3
2018-May-15 03:59N 38°45' E 015°08'8115.2
2018-May-14 22:41N 39°60' E 014°26'312.5
2018-May-14 22:28N 40°02' E 014°25'612.6
2018-May-14 22:00N 40°08' E 014°22'612.6
2018-May-14 21:30N 40°13' E 014°19'612.9
2018-May-14 21:00N 40°19' E 014°15'712.9
2018-May-14 20:29N 40°25' E 014°12'713.0
2018-May-14 19:54N 40°32' E 014°09'512.3
2018-May-14 19:30N 40°37' E 014°10'612.6
2018-May-14 19:00N 40°43' E 014°14'612.4
2018-May-14 18:30N 40°49' E 014°17'2 3.2
2018-May-14 17:58N 40°50' E 014°16'0 0.0
2018-May-14 17:28N 40°50' E 014°16'0 0.0
2018-May-14 16:58N 40°50' E 014°16'0 0.0
2018-May-14 16:28N 40°50' E 014°16'0 0.0
2018-May-14 15:58N 40°50' E 014°16'0 0.0
2018-May-14 15:10N 40°50' E 014°16'0 0.0
2018-May-14 14:58N 40°50' E 014°16'0 0.0
2018-May-14 14:28N 40°50' E 014°16'0 0.0
2018-May-14 13:58N 40°50' E 014°16'0 0.0
2018-May-14 13:28N 40°50' E 014°16'0 0.0
2018-May-14 12:58N 40°50' E 014°16'0 0.0
2018-May-14 12:28N 40°50' E 014°16'0 0.0
2018-May-14 11:46N 40°50' E 014°16'0 0.0
2018-May-14 11:28N 40°50' E 014°16'0 0.1
2018-May-14 10:49N 40°50' E 014°16'1 2.5
2018-May-14 10:30N 40°50' E 014°17'612.8
2018-May-14 10:00N 40°44' E 014°17'816.7
2018-May-14 09:30N 40°40' E 014°08'917.3
2018-May-14 09:01N 40°38' E 013°56'917.4
2018-May-14 08:30N 40°40' E 013°45'20719.2
2018-May-13 21:43N 42°28' E 009°49'3220.3
2018-May-13 20:09N 42°59' E 009°36'320.0
2018-May-13 20:00N 43°02' E 009°35'1020.0
2018-May-13 19:31N 43°09' E 009°26'1020.2
2018-May-13 19:00N 43°15' E 009°16'1020.2
2018-May-13 18:30N 43°22' E 009°05'  

Dump ship's entire track history